sensor_id;sensor_type;location;lat;lon;timestamp;P1;durP1;ratioP1;P2;durP2;ratioP2
11121;SDS011;5615;49.304;10.576;2022-12-24T00:00:08;6.90;;;2.63;;
11121;SDS011;5615;49.304;10.576;2022-12-24T00:02:36;7.23;;;2.50;;
11121;SDS011;5615;49.304;10.576;2022-12-24T00:05:03;5.70;;;2.30;;
11121;SDS011;5615;49.304;10.576;2022-12-24T00:07:30;8.87;;;2.63;;
11121;SDS011;5615;49.304;10.576;2022-12-24T00:09:58;8.00;;;2.43;;
11121;SDS011;5615;49.304;10.576;2022-12-24T00:12:25;7.93;;;2.47;;
11121;SDS011;5615;49.304;10.576;2022-12-24T00:14:51;11.33;;;3.00;;
11121;SDS011;5615;49.304;10.576;2022-12-24T00:17:18;9.30;;;2.57;;
11121;SDS011;5615;49.304;10.576;2022-12-24T00:19:45;6.00;;;2.20;;
11121;SDS011;5615;49.304;10.576;2022-12-24T00:22:11;7.30;;;2.70;;
11121;SDS011;5615;49.304;10.576;2022-12-24T00:24:38;8.33;;;2.50;;
11121;SDS011;5615;49.304;10.576;2022-12-24T00:27:06;6.93;;;2.60;;
11121;SDS011;5615;49.304;10.576;2022-12-24T00:29:33;7.87;;;2.53;;
11121;SDS011;5615;49.304;10.576;2022-12-24T00:31:59;10.63;;;3.00;;
11121;SDS011;5615;49.304;10.576;2022-12-24T00:34:26;6.43;;;2.13;;
11121;SDS011;5615;49.304;10.576;2022-12-24T00:36:52;7.33;;;2.37;;
11121;SDS011;5615;49.304;10.576;2022-12-24T00:39:19;6.90;;;2.50;;
11121;SDS011;5615;49.304;10.576;2022-12-24T00:41:46;4.97;;;2.03;;
11121;SDS011;5615;49.304;10.576;2022-12-24T00:44:14;8.87;;;2.90;;
11121;SDS011;5615;49.304;10.576;2022-12-24T00:46:40;6.20;;;2.20;;
11121;SDS011;5615;49.304;10.576;2022-12-24T00:49:08;8.77;;;2.33;;
11121;SDS011;5615;49.304;10.576;2022-12-24T00:51:37;7.47;;;2.70;;
11121;SDS011;5615;49.304;10.576;2022-12-24T00:54:03;6.23;;;2.37;;
11121;SDS011;5615;49.304;10.576;2022-12-24T00:56:30;7.73;;;2.57;;
11121;SDS011;5615;49.304;10.576;2022-12-24T00:58:57;4.37;;;1.90;;
11121;SDS011;5615;49.304;10.576;2022-12-24T01:01:25;5.57;;;2.10;;
11121;SDS011;5615;49.304;10.576;2022-12-24T01:03:52;5.07;;;2.10;;
11121;SDS011;5615;49.304;10.576;2022-12-24T01:06:39;5.17;;;1.97;;
11121;SDS011;5615;49.304;10.576;2022-12-24T01:09:04;8.83;;;3.20;;
11121;SDS011;5615;49.304;10.576;2022-12-24T01:11:31;4.37;;;2.23;;
11121;SDS011;5615;49.304;10.576;2022-12-24T01:13:58;7.93;;;2.33;;
11121;SDS011;5615;49.304;10.576;2022-12-24T01:16:26;7.40;;;2.43;;
11121;SDS011;5615;49.304;10.576;2022-12-24T01:18:52;5.57;;;2.10;;
11121;SDS011;5615;49.304;10.576;2022-12-24T01:21:19;8.83;;;2.50;;
11121;SDS011;5615;49.304;10.576;2022-12-24T01:23:46;7.77;;;2.23;;
11121;SDS011;5615;49.304;10.576;2022-12-24T01:26:12;5.93;;;2.40;;
11121;SDS011;5615;49.304;10.576;2022-12-24T01:28:39;8.67;;;2.40;;
11121;SDS011;5615;49.304;10.576;2022-12-24T01:31:09;8.43;;;2.60;;
11121;SDS011;5615;49.304;10.576;2022-12-24T01:33:38;11.80;;;2.73;;
11121;SDS011;5615;49.304;10.576;2022-12-24T01:36:05;7.93;;;2.40;;
11121;SDS011;5615;49.304;10.576;2022-12-24T01:38:31;7.33;;;2.57;;
11121;SDS011;5615;49.304;10.576;2022-12-24T01:40:58;6.17;;;2.73;;
11121;SDS011;5615;49.304;10.576;2022-12-24T01:43:43;7.50;;;2.50;;
11121;SDS011;5615;49.304;10.576;2022-12-24T01:46:10;8.23;;;2.87;;
11121;SDS011;5615;49.304;10.576;2022-12-24T01:48:43;10.37;;;2.93;;
11121;SDS011;5615;49.304;10.576;2022-12-24T01:51:14;10.37;;;2.50;;
11121;SDS011;5615;49.304;10.576;2022-12-24T01:53:45;10.97;;;3.00;;
11121;SDS011;5615;49.304;10.576;2022-12-24T01:56:14;6.50;;;2.60;;
11121;SDS011;5615;49.304;10.576;2022-12-24T01:58:43;12.97;;;2.73;;
11121;SDS011;5615;49.304;10.576;2022-12-24T02:01:13;12.03;;;3.33;;
11121;SDS011;5615;49.304;10.576;2022-12-24T02:03:40;9.40;;;2.77;;
11121;SDS011;5615;49.304;10.576;2022-12-24T02:06:08;8.07;;;2.57;;
11121;SDS011;5615;49.304;10.576;2022-12-24T02:08:40;5.80;;;2.70;;
11121;SDS011;5615;49.304;10.576;2022-12-24T02:11:08;12.20;;;3.43;;
11121;SDS011;5615;49.304;10.576;2022-12-24T02:13:35;9.13;;;3.17;;
11121;SDS011;5615;49.304;10.576;2022-12-24T02:16:03;8.70;;;3.10;;
11121;SDS011;5615;49.304;10.576;2022-12-24T02:18:39;5.87;;;2.97;;
11121;SDS011;5615;49.304;10.576;2022-12-24T02:27:06;8.17;;;3.50;;
11121;SDS011;5615;49.304;10.576;2022-12-24T02:29:55;7.87;;;2.50;;
11121;SDS011;5615;49.304;10.576;2022-12-24T02:32:31;7.27;;;2.63;;
11121;SDS011;5615;49.304;10.576;2022-12-24T02:35:03;4.97;;;2.47;;
11121;SDS011;5615;49.304;10.576;2022-12-24T02:37:34;6.43;;;2.47;;
11121;SDS011;5615;49.304;10.576;2022-12-24T02:40:06;6.97;;;2.97;;
11121;SDS011;5615;49.304;10.576;2022-12-24T02:42:38;8.57;;;2.50;;
11121;SDS011;5615;49.304;10.576;2022-12-24T02:45:08;8.67;;;2.17;;
11121;SDS011;5615;49.304;10.576;2022-12-24T02:47:37;6.37;;;2.53;;
11121;SDS011;5615;49.304;10.576;2022-12-24T02:50:06;9.37;;;2.30;;
11121;SDS011;5615;49.304;10.576;2022-12-24T02:52:35;7.97;;;2.50;;
11121;SDS011;5615;49.304;10.576;2022-12-24T02:55:04;10.07;;;2.60;;
11121;SDS011;5615;49.304;10.576;2022-12-24T02:57:36;7.03;;;2.70;;
11121;SDS011;5615;49.304;10.576;2022-12-24T03:00:17;6.23;;;2.47;;
11121;SDS011;5615;49.304;10.576;2022-12-24T03:02:51;6.73;;;2.33;;
11121;SDS011;5615;49.304;10.576;2022-12-24T03:05:33;9.27;;;2.70;;
11121;SDS011;5615;49.304;10.576;2022-12-24T03:08:08;5.73;;;2.10;;
11121;SDS011;5615;49.304;10.576;2022-12-24T03:10:40;8.43;;;2.90;;
11121;SDS011;5615;49.304;10.576;2022-12-24T03:13:12;8.47;;;2.57;;
11121;SDS011;5615;49.304;10.576;2022-12-24T03:15:43;10.20;;;2.70;;
11121;SDS011;5615;49.304;10.576;2022-12-24T03:18:13;6.53;;;2.30;;
11121;SDS011;5615;49.304;10.576;2022-12-24T03:20:44;9.00;;;2.17;;
11121;SDS011;5615;49.304;10.576;2022-12-24T03:23:13;7.40;;;2.40;;
11121;SDS011;5615;49.304;10.576;2022-12-24T03:25:41;10.03;;;3.00;;
11121;SDS011;5615;49.304;10.576;2022-12-24T03:28:09;8.70;;;2.60;;
11121;SDS011;5615;49.304;10.576;2022-12-24T03:30:39;8.80;;;2.77;;
11121;SDS011;5615;49.304;10.576;2022-12-24T03:33:07;5.77;;;2.47;;
11121;SDS011;5615;49.304;10.576;2022-12-24T03:35:34;7.63;;;2.60;;
11121;SDS011;5615;49.304;10.576;2022-12-24T03:38:00;9.53;;;2.60;;
11121;SDS011;5615;49.304;10.576;2022-12-24T03:40:27;10.03;;;2.73;;
11121;SDS011;5615;49.304;10.576;2022-12-24T03:42:54;6.83;;;2.80;;
11121;SDS011;5615;49.304;10.576;2022-12-24T03:45:20;7.20;;;2.47;;
11121;SDS011;5615;49.304;10.576;2022-12-24T03:47:47;11.30;;;2.90;;
11121;SDS011;5615;49.304;10.576;2022-12-24T03:50:15;9.07;;;2.90;;
11121;SDS011;5615;49.304;10.576;2022-12-24T03:52:42;11.00;;;2.97;;
11121;SDS011;5615;49.304;10.576;2022-12-24T03:55:09;7.40;;;2.80;;
11121;SDS011;5615;49.304;10.576;2022-12-24T03:57:35;10.43;;;3.20;;
11121;SDS011;5615;49.304;10.576;2022-12-24T04:00:02;9.67;;;2.90;;
11121;SDS011;5615;49.304;10.576;2022-12-24T04:02:30;13.67;;;3.27;;
11121;SDS011;5615;49.304;10.576;2022-12-24T04:04:56;11.57;;;2.90;;
11121;SDS011;5615;49.304;10.576;2022-12-24T04:07:24;13.03;;;3.20;;
11121;SDS011;5615;49.304;10.576;2022-12-24T04:09:51;11.80;;;3.67;;
11121;SDS011;5615;49.304;10.576;2022-12-24T04:12:18;8.43;;;2.83;;
11121;SDS011;5615;49.304;10.576;2022-12-24T04:14:44;10.23;;;2.70;;
11121;SDS011;5615;49.304;10.576;2022-12-24T04:17:11;11.90;;;3.30;;
11121;SDS011;5615;49.304;10.576;2022-12-24T04:19:37;9.93;;;3.27;;
11121;SDS011;5615;49.304;10.576;2022-12-24T04:22:04;9.87;;;2.80;;
11121;SDS011;5615;49.304;10.576;2022-12-24T04:24:32;12.37;;;3.00;;
11121;SDS011;5615;49.304;10.576;2022-12-24T04:26:58;12.17;;;3.07;;
11121;SDS011;5615;49.304;10.576;2022-12-24T04:29:25;8.50;;;3.00;;
11121;SDS011;5615;49.304;10.576;2022-12-24T04:31:52;8.50;;;2.73;;
11121;SDS011;5615;49.304;10.576;2022-12-24T04:34:18;8.50;;;2.90;;
11121;SDS011;5615;49.304;10.576;2022-12-24T04:36:45;10.17;;;3.00;;
11121;SDS011;5615;49.304;10.576;2022-12-24T04:39:11;10.80;;;3.47;;
11121;SDS011;5615;49.304;10.576;2022-12-24T04:41:39;10.17;;;3.20;;
11121;SDS011;5615;49.304;10.576;2022-12-24T04:44:07;7.10;;;2.53;;
11121;SDS011;5615;49.304;10.576;2022-12-24T04:46:35;7.70;;;2.83;;
11121;SDS011;5615;49.304;10.576;2022-12-24T04:49:02;11.93;;;3.13;;
11121;SDS011;5615;49.304;10.576;2022-12-24T04:51:28;7.20;;;2.67;;
11121;SDS011;5615;49.304;10.576;2022-12-24T04:53:55;7.27;;;2.50;;
11121;SDS011;5615;49.304;10.576;2022-12-24T04:56:23;12.70;;;3.40;;
11121;SDS011;5615;49.304;10.576;2022-12-24T04:58:52;8.33;;;2.83;;
11121;SDS011;5615;49.304;10.576;2022-12-24T05:01:20;6.87;;;3.07;;
11121;SDS011;5615;49.304;10.576;2022-12-24T05:03:48;13.53;;;3.20;;
11121;SDS011;5615;49.304;10.576;2022-12-24T05:06:16;11.37;;;2.70;;
11121;SDS011;5615;49.304;10.576;2022-12-24T05:08:52;11.00;;;2.93;;
11121;SDS011;5615;49.304;10.576;2022-12-24T05:11:19;6.67;;;2.13;;
11121;SDS011;5615;49.304;10.576;2022-12-24T05:13:46;11.23;;;2.90;;
11121;SDS011;5615;49.304;10.576;2022-12-24T05:16:15;9.43;;;2.50;;
11121;SDS011;5615;49.304;10.576;2022-12-24T05:18:42;12.10;;;3.00;;
11121;SDS011;5615;49.304;10.576;2022-12-24T05:21:10;11.17;;;2.80;;
11121;SDS011;5615;49.304;10.576;2022-12-24T05:23:38;10.90;;;2.70;;
11121;SDS011;5615;49.304;10.576;2022-12-24T05:26:25;12.80;;;3.47;;
11121;SDS011;5615;49.304;10.576;2022-12-24T05:28:54;13.17;;;3.00;;
11121;SDS011;5615;49.304;10.576;2022-12-24T05:31:23;9.70;;;3.17;;
11121;SDS011;5615;49.304;10.576;2022-12-24T05:33:51;9.97;;;2.90;;
11121;SDS011;5615;49.304;10.576;2022-12-24T05:36:18;10.87;;;3.53;;
11121;SDS011;5615;49.304;10.576;2022-12-24T05:38:45;11.97;;;3.00;;
11121;SDS011;5615;49.304;10.576;2022-12-24T05:41:12;9.30;;;2.87;;
11121;SDS011;5615;49.304;10.576;2022-12-24T05:43:38;7.77;;;3.30;;
11121;SDS011;5615;49.304;10.576;2022-12-24T05:46:06;13.30;;;2.97;;
11121;SDS011;5615;49.304;10.576;2022-12-24T05:48:35;11.20;;;3.20;;
11121;SDS011;5615;49.304;10.576;2022-12-24T05:51:02;11.10;;;3.43;;
11121;SDS011;5615;49.304;10.576;2022-12-24T05:53:30;16.53;;;3.90;;
11121;SDS011;5615;49.304;10.576;2022-12-24T05:56:01;15.10;;;4.10;;
11121;SDS011;5615;49.304;10.576;2022-12-24T05:58:29;10.70;;;3.00;;
11121;SDS011;5615;49.304;10.576;2022-12-24T06:00:56;12.40;;;3.53;;
11121;SDS011;5615;49.304;10.576;2022-12-24T06:03:22;9.23;;;3.20;;
11121;SDS011;5615;49.304;10.576;2022-12-24T06:05:57;12.90;;;2.87;;
11121;SDS011;5615;49.304;10.576;2022-12-24T06:08:25;16.17;;;4.00;;
11121;SDS011;5615;49.304;10.576;2022-12-24T06:10:53;11.80;;;3.27;;
11121;SDS011;5615;49.304;10.576;2022-12-24T06:13:20;15.50;;;3.60;;
11121;SDS011;5615;49.304;10.576;2022-12-24T06:15:47;15.30;;;3.23;;
11121;SDS011;5615;49.304;10.576;2022-12-24T06:18:14;9.23;;;3.60;;
11121;SDS011;5615;49.304;10.576;2022-12-24T06:20:40;11.77;;;3.47;;
11121;SDS011;5615;49.304;10.576;2022-12-24T06:23:08;17.00;;;3.13;;
11121;SDS011;5615;49.304;10.576;2022-12-24T06:25:35;10.07;;;3.40;;
11121;SDS011;5615;49.304;10.576;2022-12-24T06:28:02;12.37;;;4.10;;
11121;SDS011;5615;49.304;10.576;2022-12-24T06:30:28;15.17;;;7.93;;
11121;SDS011;5615;49.304;10.576;2022-12-24T06:32:55;10.73;;;4.30;;
11121;SDS011;5615;49.304;10.576;2022-12-24T06:35:21;19.03;;;7.40;;
11121;SDS011;5615;49.304;10.576;2022-12-24T06:37:48;17.10;;;7.80;;
11121;SDS011;5615;49.304;10.576;2022-12-24T06:40:16;8.53;;;3.93;;
11121;SDS011;5615;49.304;10.576;2022-12-24T06:42:43;12.87;;;4.17;;
11121;SDS011;5615;49.304;10.576;2022-12-24T06:45:10;10.63;;;3.20;;
11121;SDS011;5615;49.304;10.576;2022-12-24T06:47:36;10.40;;;3.20;;
11121;SDS011;5615;49.304;10.576;2022-12-24T06:50:03;11.67;;;4.10;;
11121;SDS011;5615;49.304;10.576;2022-12-24T06:52:30;10.10;;;3.40;;
11121;SDS011;5615;49.304;10.576;2022-12-24T06:54:57;11.63;;;3.60;;
11121;SDS011;5615;49.304;10.576;2022-12-24T06:57:25;10.83;;;3.33;;
11121;SDS011;5615;49.304;10.576;2022-12-24T06:59:52;19.03;;;4.47;;
11121;SDS011;5615;49.304;10.576;2022-12-24T07:02:18;13.40;;;4.57;;
11121;SDS011;5615;49.304;10.576;2022-12-24T07:04:45;15.07;;;3.97;;
11121;SDS011;5615;49.304;10.576;2022-12-24T07:07:11;17.23;;;4.27;;
11121;SDS011;5615;49.304;10.576;2022-12-24T07:09:38;19.67;;;4.20;;
11121;SDS011;5615;49.304;10.576;2022-12-24T07:12:04;18.27;;;4.77;;
11121;SDS011;5615;49.304;10.576;2022-12-24T07:14:33;15.50;;;3.97;;
11121;SDS011;5615;49.304;10.576;2022-12-24T07:16:59;19.43;;;4.80;;
11121;SDS011;5615;49.304;10.576;2022-12-24T07:19:26;14.57;;;4.20;;
11121;SDS011;5615;49.304;10.576;2022-12-24T07:21:53;15.07;;;4.30;;
11121;SDS011;5615;49.304;10.576;2022-12-24T07:24:19;22.47;;;5.37;;
11121;SDS011;5615;49.304;10.576;2022-12-24T07:26:46;14.93;;;5.30;;
11121;SDS011;5615;49.304;10.576;2022-12-24T07:29:12;19.87;;;4.33;;
11121;SDS011;5615;49.304;10.576;2022-12-24T07:31:40;22.93;;;5.33;;
11121;SDS011;5615;49.304;10.576;2022-12-24T07:34:07;21.30;;;4.83;;
11121;SDS011;5615;49.304;10.576;2022-12-24T07:36:33;18.20;;;4.87;;
11121;SDS011;5615;49.304;10.576;2022-12-24T07:39:00;17.83;;;5.00;;
11121;SDS011;5615;49.304;10.576;2022-12-24T07:41:27;16.40;;;4.33;;
11121;SDS011;5615;49.304;10.576;2022-12-24T07:43:53;14.80;;;5.00;;
11121;SDS011;5615;49.304;10.576;2022-12-24T07:46:20;19.50;;;5.23;;
11121;SDS011;5615;49.304;10.576;2022-12-24T07:48:48;16.17;;;4.20;;
11121;SDS011;5615;49.304;10.576;2022-12-24T07:51:14;21.43;;;4.70;;
11121;SDS011;5615;49.304;10.576;2022-12-24T07:53:41;18.47;;;4.83;;
11121;SDS011;5615;49.304;10.576;2022-12-24T07:56:11;14.60;;;5.17;;
11121;SDS011;5615;49.304;10.576;2022-12-24T07:58:38;25.30;;;5.10;;
11121;SDS011;5615;49.304;10.576;2022-12-24T08:01:05;21.73;;;4.43;;
11121;SDS011;5615;49.304;10.576;2022-12-24T08:03:31;24.23;;;4.93;;
11121;SDS011;5615;49.304;10.576;2022-12-24T08:05:59;13.07;;;4.10;;
11121;SDS011;5615;49.304;10.576;2022-12-24T08:08:26;15.63;;;4.77;;
11121;SDS011;5615;49.304;10.576;2022-12-24T08:10:53;15.20;;;4.33;;
11121;SDS011;5615;49.304;10.576;2022-12-24T08:13:25;21.93;;;5.27;;
11121;SDS011;5615;49.304;10.576;2022-12-24T08:15:51;13.10;;;4.80;;
11121;SDS011;5615;49.304;10.576;2022-12-24T08:18:18;15.00;;;4.27;;
11121;SDS011;5615;49.304;10.576;2022-12-24T08:20:44;15.87;;;4.80;;
11121;SDS011;5615;49.304;10.576;2022-12-24T08:23:12;16.57;;;5.03;;
11121;SDS011;5615;49.304;10.576;2022-12-24T08:25:41;20.63;;;4.70;;
11121;SDS011;5615;49.304;10.576;2022-12-24T08:28:08;21.67;;;5.97;;
11121;SDS011;5615;49.304;10.576;2022-12-24T08:30:35;19.30;;;4.90;;
11121;SDS011;5615;49.304;10.576;2022-12-24T08:33:02;16.63;;;5.17;;
11121;SDS011;5615;49.304;10.576;2022-12-24T08:35:29;16.17;;;4.20;;
11121;SDS011;5615;49.304;10.576;2022-12-24T08:37:55;20.47;;;5.13;;
11121;SDS011;5615;49.304;10.576;2022-12-24T08:40:23;15.07;;;3.83;;
11121;SDS011;5615;49.304;10.576;2022-12-24T08:42:50;15.03;;;4.13;;
11121;SDS011;5615;49.304;10.576;2022-12-24T08:45:17;16.33;;;4.30;;
11121;SDS011;5615;49.304;10.576;2022-12-24T08:47:44;20.13;;;4.93;;
11121;SDS011;5615;49.304;10.576;2022-12-24T08:50:10;17.70;;;5.27;;
11121;SDS011;5615;49.304;10.576;2022-12-24T08:52:38;20.83;;;5.47;;
11121;SDS011;5615;49.304;10.576;2022-12-24T08:55:04;18.53;;;4.83;;
11121;SDS011;5615;49.304;10.576;2022-12-24T08:57:35;20.57;;;4.97;;
11121;SDS011;5615;49.304;10.576;2022-12-24T09:00:02;16.43;;;4.17;;
11121;SDS011;5615;49.304;10.576;2022-12-24T09:02:29;14.17;;;4.40;;
11121;SDS011;5615;49.304;10.576;2022-12-24T09:04:56;15.97;;;4.73;;
11121;SDS011;5615;49.304;10.576;2022-12-24T09:07:22;16.67;;;4.27;;
11121;SDS011;5615;49.304;10.576;2022-12-24T09:09:49;15.33;;;3.70;;
11121;SDS011;5615;49.304;10.576;2022-12-24T09:12:16;11.73;;;4.07;;
11121;SDS011;5615;49.304;10.576;2022-12-24T09:14:44;13.83;;;3.90;;
11121;SDS011;5615;49.304;10.576;2022-12-24T09:17:10;16.43;;;4.23;;
11121;SDS011;5615;49.304;10.576;2022-12-24T09:19:37;14.47;;;4.63;;
11121;SDS011;5615;49.304;10.576;2022-12-24T09:22:04;18.87;;;4.63;;
11121;SDS011;5615;49.304;10.576;2022-12-24T09:24:30;13.40;;;4.00;;
11121;SDS011;5615;49.304;10.576;2022-12-24T09:26:57;15.40;;;4.10;;
11121;SDS011;5615;49.304;10.576;2022-12-24T09:29:25;15.13;;;4.60;;
11121;SDS011;5615;49.304;10.576;2022-12-24T09:31:53;17.37;;;4.67;;
11121;SDS011;5615;49.304;10.576;2022-12-24T09:34:21;16.63;;;4.57;;
11121;SDS011;5615;49.304;10.576;2022-12-24T09:36:48;16.27;;;5.30;;
11121;SDS011;5615;49.304;10.576;2022-12-24T09:39:18;19.33;;;6.17;;
11121;SDS011;5615;49.304;10.576;2022-12-24T09:41:46;20.23;;;7.57;;
11121;SDS011;5615;49.304;10.576;2022-12-24T09:44:21;13.77;;;4.10;;
11121;SDS011;5615;49.304;10.576;2022-12-24T09:46:57;14.77;;;4.30;;
11121;SDS011;5615;49.304;10.576;2022-12-24T09:49:30;16.43;;;5.20;;
11121;SDS011;5615;49.304;10.576;2022-12-24T09:52:04;17.97;;;4.90;;
11121;SDS011;5615;49.304;10.576;2022-12-24T09:54:33;14.80;;;4.10;;
11121;SDS011;5615;49.304;10.576;2022-12-24T09:57:04;17.80;;;4.73;;
11121;SDS011;5615;49.304;10.576;2022-12-24T09:59:38;16.87;;;4.33;;
11121;SDS011;5615;49.304;10.576;2022-12-24T10:02:09;16.83;;;4.33;;
11121;SDS011;5615;49.304;10.576;2022-12-24T10:04:38;15.67;;;4.63;;
11121;SDS011;5615;49.304;10.576;2022-12-24T10:07:07;13.47;;;4.10;;
11121;SDS011;5615;49.304;10.576;2022-12-24T10:09:45;14.37;;;3.87;;
11121;SDS011;5615;49.304;10.576;2022-12-24T10:12:24;12.90;;;4.07;;
11121;SDS011;5615;49.304;10.576;2022-12-24T10:15:00;22.07;;;7.77;;
11121;SDS011;5615;49.304;10.576;2022-12-24T10:17:39;16.70;;;4.30;;
11121;SDS011;5615;49.304;10.576;2022-12-24T10:20:19;16.67;;;3.70;;
11121;SDS011;5615;49.304;10.576;2022-12-24T10:22:52;11.47;;;4.17;;
11121;SDS011;5615;49.304;10.576;2022-12-24T10:25:27;13.87;;;3.93;;
11121;SDS011;5615;49.304;10.576;2022-12-24T10:27:59;14.10;;;4.10;;
11121;SDS011;5615;49.304;10.576;2022-12-24T10:30:28;13.33;;;3.77;;
11121;SDS011;5615;49.304;10.576;2022-12-24T10:32:56;17.87;;;3.80;;
11121;SDS011;5615;49.304;10.576;2022-12-24T10:35:24;10.97;;;3.80;;
11121;SDS011;5615;49.304;10.576;2022-12-24T10:37:54;14.47;;;4.30;;
11121;SDS011;5615;49.304;10.576;2022-12-24T10:40:26;14.37;;;3.70;;
11121;SDS011;5615;49.304;10.576;2022-12-24T10:42:57;12.47;;;3.47;;
11121;SDS011;5615;49.304;10.576;2022-12-24T10:45:24;13.47;;;4.03;;
11121;SDS011;5615;49.304;10.576;2022-12-24T10:47:59;10.93;;;3.70;;
11121;SDS011;5615;49.304;10.576;2022-12-24T10:50:30;9.30;;;3.20;;
11121;SDS011;5615;49.304;10.576;2022-12-24T10:53:00;14.33;;;3.67;;
11121;SDS011;5615;49.304;10.576;2022-12-24T10:55:30;8.77;;;3.30;;
11121;SDS011;5615;49.304;10.576;2022-12-24T10:57:59;12.77;;;3.30;;
11121;SDS011;5615;49.304;10.576;2022-12-24T11:00:27;16.97;;;4.40;;
11121;SDS011;5615;49.304;10.576;2022-12-24T11:03:05;11.20;;;3.63;;
11121;SDS011;5615;49.304;10.576;2022-12-24T11:05:45;12.27;;;3.83;;
11121;SDS011;5615;49.304;10.576;2022-12-24T11:08:25;10.70;;;3.50;;
11121;SDS011;5615;49.304;10.576;2022-12-24T11:10:53;9.87;;;3.30;;
11121;SDS011;5615;49.304;10.576;2022-12-24T11:13:21;15.10;;;4.13;;
11121;SDS011;5615;49.304;10.576;2022-12-24T11:15:50;13.47;;;3.93;;
11121;SDS011;5615;49.304;10.576;2022-12-24T11:18:27;12.60;;;3.83;;
11121;SDS011;5615;49.304;10.576;2022-12-24T11:20:56;13.33;;;3.87;;
11121;SDS011;5615;49.304;10.576;2022-12-24T11:23:25;12.67;;;3.83;;
11121;SDS011;5615;49.304;10.576;2022-12-24T11:25:52;10.57;;;3.70;;
11121;SDS011;5615;49.304;10.576;2022-12-24T11:28:22;9.93;;;3.80;;
11121;SDS011;5615;49.304;10.576;2022-12-24T11:31:00;10.57;;;3.50;;
11121;SDS011;5615;49.304;10.576;2022-12-24T11:33:31;13.77;;;3.83;;
11121;SDS011;5615;49.304;10.576;2022-12-24T11:36:10;13.17;;;4.13;;
11121;SDS011;5615;49.304;10.576;2022-12-24T11:38:38;10.07;;;3.57;;
11121;SDS011;5615;49.304;10.576;2022-12-24T11:41:06;10.45;;;3.97;;
11121;SDS011;5615;49.304;10.576;2022-12-24T11:43:45;14.27;;;3.87;;
11121;SDS011;5615;49.304;10.576;2022-12-24T11:46:17;11.20;;;3.67;;
11121;SDS011;5615;49.304;10.576;2022-12-24T11:48:48;16.57;;;4.63;;
11121;SDS011;5615;49.304;10.576;2022-12-24T11:51:30;11.20;;;3.77;;
11121;SDS011;5615;49.304;10.576;2022-12-24T11:53:59;11.57;;;3.30;;
11121;SDS011;5615;49.304;10.576;2022-12-24T11:56:32;10.03;;;3.57;;
11121;SDS011;5615;49.304;10.576;2022-12-24T11:59:07;16.70;;;4.90;;
11121;SDS011;5615;49.304;10.576;2022-12-24T12:01:41;14.30;;;4.50;;
11121;SDS011;5615;49.304;10.576;2022-12-24T12:04:16;11.73;;;3.77;;
11121;SDS011;5615;49.304;10.576;2022-12-24T12:06:46;12.77;;;3.97;;
11121;SDS011;5615;49.304;10.576;2022-12-24T12:09:16;16.73;;;3.93;;
11121;SDS011;5615;49.304;10.576;2022-12-24T12:11:45;11.97;;;3.90;;
11121;SDS011;5615;49.304;10.576;2022-12-24T12:14:17;10.93;;;3.40;;
11121;SDS011;5615;49.304;10.576;2022-12-24T12:16:49;13.60;;;3.77;;
11121;SDS011;5615;49.304;10.576;2022-12-24T12:19:27;11.30;;;3.80;;
11121;SDS011;5615;49.304;10.576;2022-12-24T12:21:59;10.43;;;3.60;;
11121;SDS011;5615;49.304;10.576;2022-12-24T12:24:32;13.40;;;4.00;;
11121;SDS011;5615;49.304;10.576;2022-12-24T12:27:03;9.00;;;3.70;;
11121;SDS011;5615;49.304;10.576;2022-12-24T12:29:38;11.23;;;3.93;;
11121;SDS011;5615;49.304;10.576;2022-12-24T12:32:11;14.73;;;3.80;;
11121;SDS011;5615;49.304;10.576;2022-12-24T12:34:49;13.30;;;3.57;;
11121;SDS011;5615;49.304;10.576;2022-12-24T12:37:23;13.10;;;2.80;;
11121;SDS011;5615;49.304;10.576;2022-12-24T12:39:55;10.90;;;3.43;;
11121;SDS011;5615;49.304;10.576;2022-12-24T12:42:24;10.97;;;3.57;;
11121;SDS011;5615;49.304;10.576;2022-12-24T12:44:59;14.37;;;3.83;;
11121;SDS011;5615;49.304;10.576;2022-12-24T12:47:40;13.53;;;3.93;;
11121;SDS011;5615;49.304;10.576;2022-12-24T12:50:33;13.07;;;4.07;;
11121;SDS011;5615;49.304;10.576;2022-12-24T12:53:10;12.00;;;3.50;;
11121;SDS011;5615;49.304;10.576;2022-12-24T12:55:55;11.33;;;3.60;;
11121;SDS011;5615;49.304;10.576;2022-12-24T12:58:30;11.63;;;3.63;;
11121;SDS011;5615;49.304;10.576;2022-12-24T13:01:02;14.23;;;3.67;;
11121;SDS011;5615;49.304;10.576;2022-12-24T13:06:50;10.67;;;3.70;;
11121;SDS011;5615;49.304;10.576;2022-12-24T13:09:51;7.87;;;3.53;;
11121;SDS011;5615;49.304;10.576;2022-12-24T13:12:42;12.50;;;3.07;;
11121;SDS011;5615;49.304;10.576;2022-12-24T13:15:37;10.20;;;3.93;;
11121;SDS011;5615;49.304;10.576;2022-12-24T13:18:43;13.57;;;4.47;;
11121;SDS011;5615;49.304;10.576;2022-12-24T13:21:29;11.45;;;3.45;;
11121;SDS011;5615;49.304;10.576;2022-12-24T13:24:21;12.43;;;4.63;;
11121;SDS011;5615;49.304;10.576;2022-12-24T13:27:00;9.65;;;3.50;;
11121;SDS011;5615;49.304;10.576;2022-12-24T13:29:29;11.25;;;3.83;;
11121;SDS011;5615;49.304;10.576;2022-12-24T13:38:32;9.02;;;3.22;;
11121;SDS011;5615;49.304;10.576;2022-12-24T13:44:20;11.40;;;3.35;;
11121;SDS011;5615;49.304;10.576;2022-12-24T13:46:49;11.67;;;3.13;;
11121;SDS011;5615;49.304;10.576;2022-12-24T13:49:31;9.80;;;3.53;;
11121;SDS011;5615;49.304;10.576;2022-12-24T13:52:07;13.30;;;4.07;;
11121;SDS011;5615;49.304;10.576;2022-12-24T13:54:43;11.43;;;3.77;;
11121;SDS011;5615;49.304;10.576;2022-12-24T13:57:26;8.27;;;3.00;;
11121;SDS011;5615;49.304;10.576;2022-12-24T13:59:59;11.87;;;3.57;;
11121;SDS011;5615;49.304;10.576;2022-12-24T14:02:27;11.77;;;3.60;;
11121;SDS011;5615;49.304;10.576;2022-12-24T14:04:59;8.47;;;3.77;;
11121;SDS011;5615;49.304;10.576;2022-12-24T14:07:30;11.60;;;3.40;;
11121;SDS011;5615;49.304;10.576;2022-12-24T14:09:58;11.77;;;3.30;;
11121;SDS011;5615;49.304;10.576;2022-12-24T14:12:31;9.67;;;3.00;;
11121;SDS011;5615;49.304;10.576;2022-12-24T14:18:15;9.20;;;3.50;;
11121;SDS011;5615;49.304;10.576;2022-12-24T14:20:43;10.23;;;3.30;;
11121;SDS011;5615;49.304;10.576;2022-12-24T14:23:14;10.50;;;3.60;;
11121;SDS011;5615;49.304;10.576;2022-12-24T14:25:52;8.97;;;3.53;;
11121;SDS011;5615;49.304;10.576;2022-12-24T14:28:22;10.50;;;4.07;;
11121;SDS011;5615;49.304;10.576;2022-12-24T14:30:58;16.53;;;4.30;;
11121;SDS011;5615;49.304;10.576;2022-12-24T14:33:28;9.90;;;3.37;;
11121;SDS011;5615;49.304;10.576;2022-12-24T14:35:55;39.23;;;15.90;;
11121;SDS011;5615;49.304;10.576;2022-12-24T14:38:23;29.50;;;10.93;;
11121;SDS011;5615;49.304;10.576;2022-12-24T14:40:51;17.43;;;4.73;;
11121;SDS011;5615;49.304;10.576;2022-12-24T14:43:28;12.80;;;4.00;;
11121;SDS011;5615;49.304;10.576;2022-12-24T14:46:09;13.73;;;5.17;;
11121;SDS011;5615;49.304;10.576;2022-12-24T14:48:47;19.47;;;6.83;;
11121;SDS011;5615;49.304;10.576;2022-12-24T14:51:18;14.90;;;6.00;;
11121;SDS011;5615;49.304;10.576;2022-12-24T14:54:05;17.83;;;6.33;;
11121;SDS011;5615;49.304;10.576;2022-12-24T14:59:43;24.70;;;8.23;;
11121;SDS011;5615;49.304;10.576;2022-12-24T15:02:20;15.27;;;4.27;;
11121;SDS011;5615;49.304;10.576;2022-12-24T15:05:01;12.33;;;5.30;;
11121;SDS011;5615;49.304;10.576;2022-12-24T15:07:29;18.07;;;5.37;;
11121;SDS011;5615;49.304;10.576;2022-12-24T15:09:57;16.50;;;5.30;;
11121;SDS011;5615;49.304;10.576;2022-12-24T15:12:23;16.43;;;5.47;;
11121;SDS011;5615;49.304;10.576;2022-12-24T15:14:51;15.53;;;5.17;;
11121;SDS011;5615;49.304;10.576;2022-12-24T15:17:18;19.47;;;5.73;;
11121;SDS011;5615;49.304;10.576;2022-12-24T15:19:46;25.50;;;11.70;;